createdAt,value
2019-02-19T00:03:04.667Z,14.83
2019-02-19T00:08:23.285Z,16.10
2019-02-19T00:13:42.143Z,11.47
2019-02-19T00:19:00.770Z,18.47
2019-02-19T00:24:19.327Z,9.13
2019-02-19T00:29:37.956Z,14.17
2019-02-19T00:34:56.524Z,8.87
2019-02-19T00:40:15.145Z,11.90
2019-02-19T00:45:33.761Z,11.57
2019-02-19T00:50:52.375Z,17.63
2019-02-19T00:56:11.124Z,11.17
2019-02-19T01:01:29.755Z,14.23
2019-02-19T01:06:48.390Z,9.58
2019-02-19T01:12:07.017Z,12.20
2019-02-19T01:17:25.655Z,8.53
2019-02-19T01:22:44.190Z,11.70
2019-02-19T01:28:02.820Z,13.18
2019-02-19T01:33:21.483Z,10.30
2019-02-19T01:38:40.128Z,11.23
2019-02-19T01:43:58.695Z,9.50
2019-02-19T01:49:17.310Z,15.67
2019-02-19T01:54:37.078Z,19.90
2019-02-19T01:59:55.672Z,15.80
2019-02-19T02:05:14.248Z,17.00
2019-02-19T02:10:32.803Z,15.03
2019-02-19T02:15:51.423Z,19.37
2019-02-19T02:21:10.049Z,16.50
2019-02-19T02:26:28.718Z,17.00
2019-02-19T02:31:47.351Z,19.55
2019-02-19T02:37:05.994Z,30.13
2019-02-19T02:42:24.463Z,29.20
2019-02-19T02:47:43.098Z,30.73
2019-02-19T02:53:01.668Z,33.83
2019-02-19T02:58:20.295Z,26.73
2019-02-19T03:03:38.834Z,27.60
2019-02-19T03:08:57.368Z,31.52
2019-02-19T03:14:16.012Z,30.27
2019-02-19T03:19:34.653Z,29.40
2019-02-19T03:24:53.294Z,29.30
2019-02-19T03:30:11.918Z,24.77
2019-02-19T03:35:30.559Z,26.37
2019-02-19T03:40:49.043Z,19.70
2019-02-19T03:46:12.180Z,25.07
2019-02-19T03:51:27.981Z,28.27
2019-02-19T03:56:46.595Z,26.33
2019-02-19T04:02:05.207Z,26.60
2019-02-19T04:07:23.829Z,24.63
2019-02-19T04:12:42.816Z,30.13
2019-02-19T04:18:01.735Z,29.27
2019-02-19T04:23:20.383Z,36.50
2019-02-19T04:28:39.076Z,41.53
2019-02-19T04:33:57.634Z,56.10
2019-02-19T04:39:16.262Z,38.37
2019-02-19T04:44:34.887Z,38.00
2019-02-19T04:49:53.509Z,37.73
2019-02-19T04:55:12.151Z,37.90
2019-02-19T05:00:30.725Z,40.33
2019-02-19T05:05:49.409Z,34.87
2019-02-19T05:11:08.043Z,40.07
2019-02-19T05:16:26.699Z,43.30
2019-02-19T05:21:45.251Z,39.07
2019-02-19T05:27:03.881Z,41.07
2019-02-19T05:32:22.523Z,37.33
2019-02-19T05:37:41.181Z,40.92
2019-02-19T05:43:01.502Z,45.70
2019-02-19T05:48:20.039Z,45.33
2019-02-19T05:53:38.558Z,45.23
2019-02-19T05:58:57.184Z,48.40
2019-02-19T06:04:16.091Z,48.70
2019-02-19T06:09:34.597Z,48.90
2019-02-19T06:14:53.211Z,57.60
2019-02-19T06:20:11.941Z,57.90
2019-02-19T06:25:32.379Z,63.60
2019-02-19T06:30:50.999Z,60.97
2019-02-19T06:36:12.610Z,60.20
2019-02-19T06:41:31.270Z,78.33
2019-02-19T06:46:49.830Z,54.77
2019-02-19T06:52:08.401Z,60.23
2019-02-19T06:57:26.985Z,62.97
2019-02-19T07:02:50.204Z,54.38
2019-02-19T07:08:08.827Z,66.07
2019-02-19T07:13:27.467Z,41.50
2019-02-19T07:18:46.034Z,48.40
2019-02-19T07:24:04.834Z,55.17
2019-02-19T07:29:23.470Z,55.60
2019-02-19T07:34:42.077Z,52.17
2019-02-19T07:40:00.720Z,47.67
2019-02-19T07:45:19.377Z,36.20
2019-02-19T07:50:37.819Z,36.37
2019-02-19T07:55:56.372Z,39.63
2019-02-19T08:01:14.967Z,39.67
2019-02-19T08:06:33.577Z,29.43
2019-02-19T08:11:52.193Z,33.97
2019-02-19T08:17:10.816Z,36.77
2019-02-19T08:22:29.349Z,46.73
2019-02-19T08:27:48.266Z,34.27
2019-02-19T08:33:06.885Z,36.37
2019-02-19T08:38:25.518Z,32.47
2019-02-19T08:43:44.136Z,36.20
2019-02-19T08:49:02.683Z,29.27
2019-02-19T08:54:21.307Z,36.33
2019-02-19T08:59:39.854Z,31.37
2019-02-19T09:04:58.406Z,32.77
2019-02-19T09:10:17.286Z,38.28
2019-02-19T09:15:35.828Z,34.37
2019-02-19T09:20:54.386Z,25.53
2019-02-19T09:26:12.971Z,57.27
2019-02-19T09:31:31.608Z,31.07
2019-02-19T09:36:50.229Z,19.32
2019-02-19T09:42:08.731Z,29.50
2019-02-19T09:47:27.284Z,15.80
2019-02-19T09:52:45.925Z,16.43
2019-02-19T09:58:04.533Z,18.03
2019-02-19T10:03:23.598Z,30.30
2019-02-19T10:08:42.153Z,15.90
2019-02-19T10:14:00.688Z,7.80
2019-02-19T10:19:19.318Z,17.30
2019-02-19T10:24:37.928Z,21.37
2019-02-19T10:29:56.786Z,16.23
2019-02-19T10:35:15.260Z,21.30
2019-02-19T10:40:33.733Z,11.77
2019-02-19T10:45:52.350Z,13.60
2019-02-19T10:51:11.629Z,24.50
2019-02-19T10:56:30.220Z,15.08
2019-02-19T11:01:48.973Z,12.27
2019-02-19T11:07:07.522Z,9.43
2019-02-19T11:12:26.069Z,13.17
2019-02-19T11:17:44.705Z,10.63
2019-02-19T11:23:03.324Z,11.73
2019-02-19T11:28:22.030Z,11.37
2019-02-19T11:33:40.609Z,12.93
2019-02-19T11:38:59.165Z,4.63
2019-02-19T11:44:17.907Z,18.60
2019-02-19T11:49:36.478Z,12.77
2019-02-19T11:54:55.027Z,15.97
2019-02-19T12:00:20.146Z,10.23
2019-02-19T12:05:38.759Z,11.27
2019-02-19T12:10:57.917Z,15.20
2019-02-19T12:16:16.549Z,12.07
2019-02-19T12:21:35.182Z,9.57
2019-02-19T12:26:53.733Z,13.37
2019-02-19T12:32:12.361Z,13.70
2019-02-19T12:37:30.962Z,9.40
2019-02-19T12:42:49.584Z,15.03
2019-02-19T12:48:08.201Z,11.07
2019-02-19T12:53:26.752Z,8.73
2019-02-19T12:58:45.319Z,15.95
2019-02-19T13:04:03.859Z,13.50
2019-02-19T13:09:22.411Z,12.13
2019-02-19T13:14:41.258Z,13.63
2019-02-19T13:19:59.890Z,11.27
2019-02-19T13:25:18.512Z,12.53
2019-02-19T13:30:37.063Z,13.47
2019-02-19T13:35:58.342Z,9.97
2019-02-19T13:41:17.087Z,6.20
2019-02-19T13:46:36.036Z,9.73
2019-02-19T13:51:56.219Z,5.23
2019-02-19T13:57:14.923Z,9.93
2019-02-19T14:02:33.479Z,12.20
2019-02-19T14:07:52.164Z,9.43
2019-02-19T14:13:10.803Z,12.90
2019-02-19T14:18:48.423Z,11.17
2019-02-19T14:24:26.731Z,11.13
2019-02-19T14:29:49.822Z,6.37
2019-02-19T14:35:28.839Z,5.00
2019-02-19T14:41:05.249Z,7.63
2019-02-19T14:46:25.646Z,13.20
2019-02-19T14:51:55.547Z,10.83
2019-02-19T14:57:28.069Z,10.90
2019-02-19T15:03:04.312Z,10.27
2019-02-19T15:08:36.766Z,10.07
2019-02-19T15:14:02.700Z,6.67
2019-02-19T15:19:39.253Z,9.90
2019-02-19T15:24:59.704Z,7.40
2019-02-19T15:30:28.743Z,17.07
2019-02-19T15:36:04.055Z,10.83
2019-02-19T15:41:39.797Z,7.40
2019-02-19T15:47:16.073Z,9.13
2019-02-19T15:52:38.950Z,15.07
2019-02-19T15:58:05.070Z,9.83
2019-02-19T16:03:29.850Z,9.73
2019-02-19T16:08:58.384Z,5.43
2019-02-19T16:14:35.096Z,20.17
2019-02-19T16:20:00.511Z,8.73
2019-02-19T16:25:39.468Z,10.68
2019-02-19T16:31:08.201Z,8.27
2019-02-19T16:36:40.644Z,4.90
2019-02-19T16:42:06.701Z,10.97
2019-02-19T16:47:41.952Z,12.40
2019-02-19T16:53:02.222Z,17.20
2019-02-19T16:58:28.359Z,11.57
2019-02-19T17:03:59.711Z,10.43
2019-02-19T17:09:19.907Z,10.97
2019-02-19T17:14:56.699Z,14.63
2019-02-19T17:20:29.351Z,11.65
2019-02-19T17:25:47.940Z,10.47
2019-02-19T17:31:08.261Z,21.57
2019-02-19T17:36:28.523Z,15.27
2019-02-19T17:41:57.606Z,12.53
2019-02-19T17:47:33.104Z,17.00
2019-02-19T17:53:05.669Z,10.27
2019-02-19T17:58:25.858Z,22.57
2019-02-19T18:03:46.126Z,10.58
2019-02-19T18:09:23.690Z,14.85
2019-02-19T18:14:55.650Z,15.70
2019-02-19T18:20:14.394Z,17.60
2019-02-19T18:25:33.175Z,12.33
2019-02-19T18:30:51.804Z,13.00
2019-02-19T18:36:10.356Z,10.73
2019-02-19T18:41:28.980Z,15.87
2019-02-19T18:46:47.557Z,14.93
2019-02-19T18:52:06.187Z,8.93
2019-02-19T18:57:24.776Z,12.77
2019-02-19T19:02:43.398Z,16.13
2019-02-19T19:08:01.890Z,10.20
2019-02-19T19:13:20.492Z,28.97
2019-02-19T19:18:39.198Z,9.23
2019-02-19T19:23:58.144Z,17.93
2019-02-19T19:29:17.000Z,14.73
2019-02-19T19:34:35.685Z,14.15
2019-02-19T19:39:54.204Z,12.93
2019-02-19T19:45:13.146Z,11.80
2019-02-19T19:50:31.652Z,19.90
2019-02-19T19:55:50.209Z,12.75
2019-02-19T20:01:09.331Z,12.80
2019-02-19T20:06:29.437Z,19.20
2019-02-19T20:11:48.051Z,17.73
2019-02-19T20:17:06.536Z,12.17
2019-02-19T20:22:25.129Z,18.17
2019-02-19T20:27:43.775Z,13.17
2019-02-19T20:33:02.394Z,13.63
2019-02-19T20:38:21.054Z,18.13
2019-02-19T20:43:39.760Z,16.00
2019-02-19T20:48:58.377Z,24.53
2019-02-19T20:54:17.042Z,20.73
2019-02-19T20:59:35.631Z,25.70
2019-02-19T21:04:54.188Z,18.37
2019-02-19T21:10:17.596Z,13.58
2019-02-19T21:15:42.661Z,9.83
2019-02-19T21:21:02.130Z,25.20
2019-02-19T21:26:20.737Z,15.80
2019-02-19T21:31:40.426Z,24.63
2019-02-19T21:37:04.813Z,13.93
2019-02-19T21:42:24.110Z,17.43
2019-02-19T21:47:42.880Z,22.07
2019-02-19T21:53:01.652Z,20.73
2019-02-19T21:58:20.260Z,20.77
2019-02-19T22:03:39.821Z,18.37
2019-02-19T22:08:58.542Z,21.23
2019-02-19T22:14:17.190Z,18.70
2019-02-19T22:19:35.874Z,21.47
2019-02-19T22:24:56.083Z,19.33
2019-02-19T22:30:14.716Z,17.92
2019-02-19T22:35:36.033Z,31.43
2019-02-19T22:40:55.440Z,18.47
2019-02-19T22:46:15.935Z,20.17
2019-02-19T22:51:34.552Z,24.47
2019-02-19T22:56:53.708Z,26.37
2019-02-19T23:02:14.490Z,27.43
2019-02-19T23:07:33.277Z,21.73
2019-02-19T23:12:52.099Z,29.40
2019-02-19T23:18:10.729Z,26.03
2019-02-19T23:23:29.477Z,29.00
2019-02-19T23:28:48.118Z,21.50
2019-02-19T23:34:06.668Z,24.67
2019-02-19T23:39:25.572Z,20.87
2019-02-19T23:44:44.062Z,28.07
2019-02-19T23:50:02.674Z,15.90
2019-02-19T23:55:21.225Z,15.63
